sensor_id;sensor_type;location;lat;lon;timestamp;pressure;altitude;pressure_sealevel;temperature;humidity
8501;BME280;4288;48.484;10.024;2023-04-28T10:49:10;95334.78;;;19.02;58.58
8501;BME280;4288;48.484;10.024;2023-04-28T10:51:37;95328.72;;;18.51;60.63
8501;BME280;4288;48.484;10.024;2023-04-28T10:54:15;95336.63;;;18.33;60.53
8501;BME280;4288;48.484;10.024;2023-04-28T10:57:15;95337.59;;;18.26;60.46
8501;BME280;4288;48.484;10.024;2023-04-28T10:59:44;95322.97;;;18.24;60.35
8501;BME280;4288;48.484;10.024;2023-04-28T11:02:37;95316.84;;;18.23;59.91
8501;BME280;4288;48.484;10.024;2023-04-28T11:05:17;95318.78;;;18.23;60.11
8501;BME280;4288;48.484;10.024;2023-04-28T11:11:20;95319.94;;;18.22;60.19
8501;BME280;4288;48.484;10.024;2023-04-28T11:13:48;95307.63;;;18.21;60.08
8501;BME280;4288;48.484;10.024;2023-04-28T11:16:17;95310.31;;;18.21;60.30
8501;BME280;4288;48.484;10.024;2023-04-28T11:18:51;95312.28;;;18.20;60.31
8501;BME280;4288;48.484;10.024;2023-04-28T11:21:22;95316.50;;;18.21;59.71
8501;BME280;4288;48.484;10.024;2023-04-28T11:23:50;95324.63;;;18.21;60.35
8501;BME280;4288;48.484;10.024;2023-04-28T11:26:18;95320.72;;;18.22;60.63
8501;BME280;4288;48.484;10.024;2023-04-28T11:28:54;95317.25;;;18.22;60.29
8501;BME280;4288;48.484;10.024;2023-04-28T11:31:22;95333.06;;;18.23;60.93
8501;BME280;4288;48.484;10.024;2023-04-28T11:33:53;95317.56;;;18.24;61.31
8501;BME280;4288;48.484;10.024;2023-04-28T11:36:29;95322.97;;;18.24;60.63
8501;BME280;4288;48.484;10.024;2023-04-28T11:38:57;95321.03;;;18.24;60.58
8501;BME280;4288;48.484;10.024;2023-04-28T11:41:25;95331.41;;;18.26;60.63
8501;BME280;4288;48.484;10.024;2023-04-28T11:43:53;95335.66;;;18.27;60.53
8501;BME280;4288;48.484;10.024;2023-04-28T11:46:22;95332.94;;;18.27;60.50
8501;BME280;4288;48.484;10.024;2023-04-28T11:49:00;95324.38;;;18.28;61.04
8501;BME280;4288;48.484;10.024;2023-04-28T11:51:34;95332.84;;;18.30;60.42
8501;BME280;4288;48.484;10.024;2023-04-28T11:54:04;95327.31;;;18.34;60.32
8501;BME280;4288;48.484;10.024;2023-04-28T11:56:36;95320.84;;;18.31;60.74
8501;BME280;4288;48.484;10.024;2023-04-28T11:59:06;95330.47;;;18.32;58.04
8501;BME280;4288;48.484;10.024;2023-04-28T12:01:42;95324.16;;;18.35;58.83
8501;BME280;4288;48.484;10.024;2023-04-28T12:04:10;95330.66;;;18.38;58.87
8501;BME280;4288;48.484;10.024;2023-04-28T12:06:40;95332.50;;;18.41;60.29
8501;BME280;4288;48.484;10.024;2023-04-28T12:09:18;95339.88;;;18.40;59.55
8501;BME280;4288;48.484;10.024;2023-04-28T12:11:53;95334.47;;;18.40;59.47
8501;BME280;4288;48.484;10.024;2023-04-28T12:14:22;95333.25;;;18.41;60.10
8501;BME280;4288;48.484;10.024;2023-04-28T12:16:49;95330.91;;;18.43;61.66
8501;BME280;4288;48.484;10.024;2023-04-28T12:19:17;95342.38;;;18.47;66.78
8501;BME280;4288;48.484;10.024;2023-04-28T12:22:00;95340.09;;;18.46;62.70
8501;BME280;4288;48.484;10.024;2023-04-28T12:24:28;95340.88;;;18.46;61.84
8501;BME280;4288;48.484;10.024;2023-04-28T12:27:13;95331.66;;;18.44;64.13
8501;BME280;4288;48.484;10.024;2023-04-28T12:29:42;95344.06;;;18.41;62.58
8501;BME280;4288;48.484;10.024;2023-04-28T12:32:11;95344.34;;;18.47;62.76
8501;BME280;4288;48.484;10.024;2023-04-28T12:34:41;95338.94;;;18.47;62.43
8501;BME280;4288;48.484;10.024;2023-04-28T12:37:09;95345.84;;;18.48;62.13
8501;BME280;4288;48.484;10.024;2023-04-28T12:39:39;95341.19;;;18.48;61.73
8501;BME280;4288;48.484;10.024;2023-04-28T12:42:08;95332.31;;;18.48;62.15
8501;BME280;4288;48.484;10.024;2023-04-28T12:44:36;95342.69;;;18.49;61.50
8501;BME280;4288;48.484;10.024;2023-04-28T12:47:04;95333.06;;;18.48;61.81
8501;BME280;4288;48.484;10.024;2023-04-28T12:49:33;95340.00;;;18.49;61.25
8501;BME280;4288;48.484;10.024;2023-04-28T12:52:01;95344.66;;;18.49;60.99
8501;BME280;4288;48.484;10.024;2023-04-28T12:54:29;95336.84;;;18.51;60.90
8501;BME280;4288;48.484;10.024;2023-04-28T12:56:57;95335.66;;;18.52;61.42
8501;BME280;4288;48.484;10.024;2023-04-28T12:59:24;95340.63;;;18.53;62.07
8501;BME280;4288;48.484;10.024;2023-04-28T13:01:52;95339.47;;;18.54;62.29
8501;BME280;4288;48.484;10.024;2023-04-28T13:04:20;95346.81;;;18.54;60.90
8501;BME280;4288;48.484;10.024;2023-04-28T13:06:48;95336.75;;;18.54;61.74
8501;BME280;4288;48.484;10.024;2023-04-28T13:09:15;95336.31;;;18.56;61.60
8501;BME280;4288;48.484;10.024;2023-04-28T13:11:44;95327.75;;;18.57;62.28
8501;BME280;4288;48.484;10.024;2023-04-28T13:14:12;95328.50;;;18.58;62.22
8501;BME280;4288;48.484;10.024;2023-04-28T13:16:39;95325.69;;;18.61;62.38
8501;BME280;4288;48.484;10.024;2023-04-28T13:19:07;95326.44;;;18.62;61.38
8501;BME280;4288;48.484;10.024;2023-04-28T13:21:35;95321.03;;;18.62;62.40
8501;BME280;4288;48.484;10.024;2023-04-28T13:24:04;95323.75;;;18.62;61.52
8501;BME280;4288;48.484;10.024;2023-04-28T13:26:31;95313.25;;;18.64;60.79
8501;BME280;4288;48.484;10.024;2023-04-28T13:29:00;95322.88;;;18.65;61.17
8501;BME280;4288;48.484;10.024;2023-04-28T13:31:29;95323.19;;;18.67;62.14
8501;BME280;4288;48.484;10.024;2023-04-28T13:33:56;95315.06;;;18.67;61.20
8501;BME280;4288;48.484;10.024;2023-04-28T13:36:27;95311.50;;;18.70;62.44
8501;BME280;4288;48.484;10.024;2023-04-28T13:38:55;95313.00;;;18.71;61.02
8501;BME280;4288;48.484;10.024;2023-04-28T13:41:23;95316.91;;;18.70;61.78
8501;BME280;4288;48.484;10.024;2023-04-28T13:43:50;95310.28;;;18.71;63.89
8501;BME280;4288;48.484;10.024;2023-04-28T13:46:20;95302.16;;;18.71;64.89
8501;BME280;4288;48.484;10.024;2023-04-28T13:48:48;95302.16;;;18.71;64.21
8501;BME280;4288;48.484;10.024;2023-04-28T13:51:16;95296.31;;;18.73;64.36
8501;BME280;4288;48.484;10.024;2023-04-28T13:53:43;95297.41;;;18.75;63.92
8501;BME280;4288;48.484;10.024;2023-04-28T13:56:11;95300.41;;;18.77;61.22
8501;BME280;4288;48.484;10.024;2023-04-28T13:58:38;95297.19;;;18.82;62.76
8501;BME280;4288;48.484;10.024;2023-04-28T14:01:05;95295.19;;;18.83;62.91
8501;BME280;4288;48.484;10.024;2023-04-28T14:03:34;95297.91;;;18.83;62.48
8501;BME280;4288;48.484;10.024;2023-04-28T14:06:02;95298.34;;;18.81;60.89
8501;BME280;4288;48.484;10.024;2023-04-28T14:08:29;95294.47;;;18.82;61.58
8501;BME280;4288;48.484;10.024;2023-04-28T14:10:57;95308.28;;;18.84;63.36
8501;BME280;4288;48.484;10.024;2023-04-28T14:13:24;95285.56;;;18.82;62.90
8501;BME280;4288;48.484;10.024;2023-04-28T14:15:52;95292.50;;;18.83;63.89
8501;BME280;4288;48.484;10.024;2023-04-28T14:18:20;95285.56;;;18.82;63.15
8501;BME280;4288;48.484;10.024;2023-04-28T14:20:48;95285.13;;;18.83;63.18
8501;BME280;4288;48.484;10.024;2023-04-28T14:23:16;95283.63;;;18.82;62.85
8501;BME280;4288;48.484;10.024;2023-04-28T14:25:43;95286.34;;;18.82;63.30
8501;BME280;4288;48.484;10.024;2023-04-28T14:28:11;95295.53;;;18.85;64.09
8501;BME280;4288;48.484;10.024;2023-04-28T14:30:39;95280.69;;;18.89;68.13
8501;BME280;4288;48.484;10.024;2023-04-28T14:33:06;95285.31;;;18.89;70.52
8501;BME280;4288;48.484;10.024;2023-04-28T14:35:34;95281.53;;;18.86;68.02
8501;BME280;4288;48.484;10.024;2023-04-28T14:38:02;95278.09;;;18.86;68.06
8501;BME280;4288;48.484;10.024;2023-04-28T14:40:30;95281.97;;;18.85;67.08
8501;BME280;4288;48.484;10.024;2023-04-28T14:42:58;95279.59;;;18.87;66.83
8501;BME280;4288;48.484;10.024;2023-04-28T14:45:25;95279.59;;;18.87;67.39
8501;BME280;4288;48.484;10.024;2023-04-28T14:47:53;95274.19;;;18.87;65.80
8501;BME280;4288;48.484;10.024;2023-04-28T14:50:20;95274.50;;;18.89;64.08
8501;BME280;4288;48.484;10.024;2023-04-28T14:52:48;95273.72;;;18.88;64.88
8501;BME280;4288;48.484;10.024;2023-04-28T14:55:17;95262.16;;;18.88;64.23
8501;BME280;4288;48.484;10.024;2023-04-28T14:57:44;95262.16;;;18.88;64.21
8501;BME280;4288;48.484;10.024;2023-04-28T15:00:14;95264.88;;;18.88;64.38
8501;BME280;4288;48.484;10.024;2023-04-28T15:02:41;95263.34;;;18.87;63.63
8501;BME280;4288;48.484;10.024;2023-04-28T15:05:09;95264.88;;;18.88;63.25
8501;BME280;4288;48.484;10.024;2023-04-28T15:07:37;95264.09;;;18.87;63.18
8501;BME280;4288;48.484;10.024;2023-04-28T15:10:05;95271.03;;;18.88;63.09
8501;BME280;4288;48.484;10.024;2023-04-28T15:12:35;95269.53;;;18.87;63.06
8501;BME280;4288;48.484;10.024;2023-04-28T15:15:02;95269.09;;;18.89;63.00
8501;BME280;4288;48.484;10.024;2023-04-28T15:17:30;95269.09;;;18.89;63.32
8501;BME280;4288;48.484;10.024;2023-04-28T15:19:57;95263.66;;;18.89;62.84
8501;BME280;4288;48.484;10.024;2023-04-28T15:22:24;95256.75;;;18.88;62.29
8501;BME280;4288;48.484;10.024;2023-04-28T15:24:52;95262.91;;;18.88;61.95
8501;BME280;4288;48.484;10.024;2023-04-28T15:27:20;95256.75;;;18.88;62.67
8501;BME280;4288;48.484;10.024;2023-04-28T15:29:49;95255.53;;;18.89;63.06
8501;BME280;4288;48.484;10.024;2023-04-28T15:32:16;95242.00;;;18.89;62.01
8501;BME280;4288;48.484;10.024;2023-04-28T15:34:44;95242.75;;;18.89;61.75
8501;BME280;4288;48.484;10.024;2023-04-28T15:37:38;95242.75;;;18.89;62.00
8501;BME280;4288;48.484;10.024;2023-04-28T15:40:07;95243.88;;;18.79;66.71
8501;BME280;4288;48.484;10.024;2023-04-28T15:42:35;95235.59;;;18.61;62.77
8501;BME280;4288;48.484;10.024;2023-04-28T15:45:05;95238.19;;;18.64;62.79
8501;BME280;4288;48.484;10.024;2023-04-28T15:47:35;95244.44;;;18.74;60.84
8501;BME280;4288;48.484;10.024;2023-04-28T15:50:04;95240.59;;;18.84;61.74
8501;BME280;4288;48.484;10.024;2023-04-28T15:52:32;95247.53;;;18.85;61.64
8501;BME280;4288;48.484;10.024;2023-04-28T15:54:59;95244.38;;;18.87;61.90
8501;BME280;4288;48.484;10.024;2023-04-28T15:57:26;95241.22;;;18.88;61.72
8501;BME280;4288;48.484;10.024;2023-04-28T15:59:54;95243.53;;;18.90;61.87
8501;BME280;4288;48.484;10.024;2023-04-28T16:02:23;95240.69;;;18.93;62.17
8501;BME280;4288;48.484;10.024;2023-04-28T16:04:50;95262.34;;;18.93;62.74
8501;BME280;4288;48.484;10.024;2023-04-28T16:07:18;95262.34;;;18.93;61.93
8501;BME280;4288;48.484;10.024;2023-04-28T16:09:45;95256.94;;;18.93;62.47
8501;BME280;4288;48.484;10.024;2023-04-28T16:12:13;95253.78;;;18.95;62.29
8501;BME280;4288;48.484;10.024;2023-04-28T16:14:40;95252.59;;;18.96;62.04
8501;BME280;4288;48.484;10.024;2023-04-28T16:17:07;95255.19;;;18.99;61.47
8501;BME280;4288;48.484;10.024;2023-04-28T16:19:36;95261.78;;;18.98;62.20
8501;BME280;4288;48.484;10.024;2023-04-28T16:22:03;95256.38;;;18.98;61.60
8501;BME280;4288;48.484;10.024;2023-04-28T16:24:31;95255.19;;;18.99;62.56
8501;BME280;4288;48.484;10.024;2023-04-28T16:27:00;95243.13;;;19.00;62.96
8501;BME280;4288;48.484;10.024;2023-04-28T16:29:28;95241.97;;;19.01;61.99
8501;BME280;4288;48.484;10.024;2023-04-28T16:31:56;95241.97;;;19.01;61.50
8501;BME280;4288;48.484;10.024;2023-04-28T16:34:23;95256.25;;;19.02;63.05
8501;BME280;4288;48.484;10.024;2023-04-28T16:36:52;95243.47;;;19.02;62.03
8501;BME280;4288;48.484;10.024;2023-04-28T16:39:19;95249.63;;;19.03;62.37
8501;BME280;4288;48.484;10.024;2023-04-28T16:41:47;95246.94;;;19.03;62.26
8501;BME280;4288;48.484;10.024;2023-04-28T16:44:15;95253.09;;;19.03;61.76
8501;BME280;4288;48.484;10.024;2023-04-28T16:46:42;95239.97;;;19.02;61.77
8501;BME280;4288;48.484;10.024;2023-04-28T16:49:09;95244.22;;;19.03;60.83
8501;BME280;4288;48.484;10.024;2023-04-28T16:51:38;95236.41;;;19.05;61.95
8501;BME280;4288;48.484;10.024;2023-04-28T16:54:06;95222.41;;;19.06;62.20
8501;BME280;4288;48.484;10.024;2023-04-28T16:56:34;95226.66;;;19.07;67.31
8501;BME280;4288;48.484;10.024;2023-04-28T16:59:04;95222.56;;;19.03;64.17
8501;BME280;4288;48.484;10.024;2023-04-28T17:01:32;95233.97;;;18.98;63.19
8501;BME280;4288;48.484;10.024;2023-04-28T17:03:59;95245.66;;;18.95;63.22
8501;BME280;4288;48.484;10.024;2023-04-28T17:06:27;95240.25;;;18.95;60.89
8501;BME280;4288;48.484;10.024;2023-04-28T17:08:55;95244.03;;;18.97;60.19
8501;BME280;4288;48.484;10.024;2023-04-28T17:11:25;95238.16;;;18.99;60.57
8501;BME280;4288;48.484;10.024;2023-04-28T17:13:52;95230.81;;;18.99;61.05
8501;BME280;4288;48.484;10.024;2023-04-28T17:16:20;95220.72;;;19.00;61.37
8501;BME280;4288;48.484;10.024;2023-04-28T17:18:47;95238.47;;;19.01;61.53
8501;BME280;4288;48.484;10.024;2023-04-28T17:21:14;95240.44;;;19.00;61.95
8501;BME280;4288;48.484;10.024;2023-04-28T17:23:42;95244.34;;;18.99;61.92
8501;BME280;4288;48.484;10.024;2023-04-28T17:26:10;95240.44;;;19.00;61.87
8501;BME280;4288;48.484;10.024;2023-04-28T17:28:38;95241.19;;;19.01;61.72
8501;BME280;4288;48.484;10.024;2023-04-28T17:31:06;95243.47;;;19.02;62.19
8501;BME280;4288;48.484;10.024;2023-04-28T17:33:33;95239.97;;;19.02;61.98
8501;BME280;4288;48.484;10.024;2023-04-28T17:36:02;95244.66;;;19.01;61.70
8501;BME280;4288;48.484;10.024;2023-04-28T17:38:29;95247.38;;;19.01;61.74
8501;BME280;4288;48.484;10.024;2023-04-28T17:40:57;95237.28;;;19.02;61.45
8501;BME280;4288;48.484;10.024;2023-04-28T17:43:24;95237.28;;;19.02;61.81
8501;BME280;4288;48.484;10.024;2023-04-28T17:45:53;95239.25;;;19.01;61.78
8501;BME280;4288;48.484;10.024;2023-04-28T17:48:21;95245.41;;;19.02;61.46
8501;BME280;4288;48.484;10.024;2023-04-28T17:50:48;95257.75;;;19.03;61.52
8501;BME280;4288;48.484;10.024;2023-04-28T17:53:15;95280.19;;;19.03;61.78
8501;BME280;4288;48.484;10.024;2023-04-28T17:55:43;95277.91;;;19.02;61.70
8501;BME280;4288;48.484;10.024;2023-04-28T17:58:10;95275.97;;;19.02;61.66
8501;BME280;4288;48.484;10.024;2023-04-28T18:00:38;95272.50;;;19.02;61.27
8501;BME280;4288;48.484;10.024;2023-04-28T18:03:06;95274.00;;;19.03;60.97
8501;BME280;4288;48.484;10.024;2023-04-28T18:05:34;95267.06;;;19.02;61.72
8501;BME280;4288;48.484;10.024;2023-04-28T18:08:01;95256.25;;;19.02;61.58
8501;BME280;4288;48.484;10.024;2023-04-28T18:10:29;95265.13;;;19.02;61.73
8501;BME280;4288;48.484;10.024;2023-04-28T18:12:57;95263.19;;;19.03;61.73
8501;BME280;4288;48.484;10.024;2023-04-28T18:15:25;95273.25;;;19.02;61.67
8501;BME280;4288;48.484;10.024;2023-04-28T18:17:52;95277.91;;;19.02;61.60
8501;BME280;4288;48.484;10.024;2023-04-28T18:20:23;95269.78;;;19.02;61.73
8501;BME280;4288;48.484;10.024;2023-04-28T18:22:50;95268.59;;;19.03;61.29
8501;BME280;4288;48.484;10.024;2023-04-28T18:25:18;95281.38;;;19.02;61.46
8501;BME280;4288;48.484;10.024;2023-04-28T18:27:45;95286.78;;;19.02;61.42
8501;BME280;4288;48.484;10.024;2023-04-28T18:30:13;95281.38;;;19.02;61.48
8501;BME280;4288;48.484;10.024;2023-04-28T18:32:40;95283.31;;;19.02;61.54
8501;BME280;4288;48.484;10.024;2023-04-28T18:35:08;95292.66;;;19.01;61.37
8501;BME280;4288;48.484;10.024;2023-04-28T18:37:37;95297.63;;;19.02;61.10
8501;BME280;4288;48.484;10.024;2023-04-28T18:40:04;95300.34;;;19.02;61.15
8501;BME280;4288;48.484;10.024;2023-04-28T18:42:32;95296.13;;;19.01;60.89
8501;BME280;4288;48.484;10.024;2023-04-28T18:44:59;95303.03;;;19.02;61.12
8501;BME280;4288;48.484;10.024;2023-04-28T18:47:27;95303.03;;;19.02;60.95
8501;BME280;4288;48.484;10.024;2023-04-28T18:49:54;95304.25;;;19.01;60.66
8501;BME280;4288;48.484;10.024;2023-04-28T18:52:22;95310.41;;;19.02;60.95
8501;BME280;4288;48.484;10.024;2023-04-28T18:54:51;95308.47;;;19.02;60.58
8501;BME280;4288;48.484;10.024;2023-04-28T18:57:18;95310.41;;;19.02;60.59
8501;BME280;4288;48.484;10.024;2023-04-28T18:59:45;95298.06;;;19.01;60.55
8501;BME280;4288;48.484;10.024;2023-04-28T19:02:13;95308.47;;;19.02;60.81
8501;BME280;4288;48.484;10.024;2023-04-28T19:04:44;95313.13;;;19.02;60.50
8501;BME280;4288;48.484;10.024;2023-04-28T19:07:11;95315.09;;;19.01;60.75
8501;BME280;4288;48.484;10.024;2023-04-28T19:09:39;95313.88;;;19.02;60.65
8501;BME280;4288;48.484;10.024;2023-04-28T19:12:08;95315.09;;;19.01;60.85
8501;BME280;4288;48.484;10.024;2023-04-28T19:14:35;95318.97;;;19.00;60.47
8501;BME280;4288;48.484;10.024;2023-04-28T19:17:03;95320.50;;;19.01;60.73
8501;BME280;4288;48.484;10.024;2023-04-28T19:19:30;95315.09;;;19.01;60.64
8501;BME280;4288;48.484;10.024;2023-04-28T19:21:57;95322.47;;;19.01;60.26
8501;BME280;4288;48.484;10.024;2023-04-28T19:24:25;95330.59;;;19.01;60.37
8501;BME280;4288;48.484;10.024;2023-04-28T19:26:54;95332.53;;;19.00;60.54
8501;BME280;4288;48.484;10.024;2023-04-28T19:29:24;95339.47;;;19.01;60.24
8501;BME280;4288;48.484;10.024;2023-04-28T19:31:51;95343.34;;;19.00;60.33
8501;BME280;4288;48.484;10.024;2023-04-28T19:34:19;95348.78;;;19.00;60.27
8501;BME280;4288;48.484;10.024;2023-04-28T19:36:46;95343.34;;;19.00;59.85
8501;BME280;4288;48.484;10.024;2023-04-28T19:39:14;95350.00;;;18.99;60.23
8501;BME280;4288;48.484;10.024;2023-04-28T19:41:41;95358.13;;;18.99;60.19
8501;BME280;4288;48.484;10.024;2023-04-28T19:44:09;95365.03;;;19.00;59.92
8501;BME280;4288;48.484;10.024;2023-04-28T19:46:38;95363.53;;;18.99;60.16
8501;BME280;4288;48.484;10.024;2023-04-28T19:49:05;95375.09;;;19.00;59.85
8501;BME280;4288;48.484;10.024;2023-04-28T19:51:32;95372.38;;;19.00;59.85
8501;BME280;4288;48.484;10.024;2023-04-28T19:54:00;95372.38;;;19.00;59.57
8501;BME280;4288;48.484;10.024;2023-04-28T19:56:27;95374.38;;;18.99;59.84
8501;BME280;4288;48.484;10.024;2023-04-28T19:58:55;95375.88;;;19.00;61.07
8501;BME280;4288;48.484;10.024;2023-04-28T20:01:24;95374.69;;;19.01;60.26
8501;BME280;4288;48.484;10.024;2023-04-28T20:03:53;95377.81;;;19.00;61.22
8501;BME280;4288;48.484;10.024;2023-04-28T20:06:20;95377.94;;;18.96;60.09
8501;BME280;4288;48.484;10.024;2023-04-28T20:08:48;95376.75;;;18.97;59.84
8501;BME280;4288;48.484;10.024;2023-04-28T20:11:16;95376.00;;;18.97;60.26
8501;BME280;4288;48.484;10.024;2023-04-28T20:13:44;95379.47;;;18.97;60.21
8501;BME280;4288;48.484;10.024;2023-04-28T20:16:11;95379.47;;;18.97;60.04
8501;BME280;4288;48.484;10.024;2023-04-28T20:18:39;95377.94;;;18.96;59.94
8501;BME280;4288;48.484;10.024;2023-04-28T20:21:07;95378.69;;;18.97;59.88
8501;BME280;4288;48.484;10.024;2023-04-28T20:23:35;95384.88;;;18.97;59.87
8501;BME280;4288;48.484;10.024;2023-04-28T20:26:02;95380.97;;;18.98;59.90
8501;BME280;4288;48.484;10.024;2023-04-28T20:28:30;95380.97;;;18.98;59.99
8501;BME280;4288;48.484;10.024;2023-04-28T20:30:58;95374.03;;;18.97;60.66
8501;BME280;4288;48.484;10.024;2023-04-28T20:33:25;95384.13;;;18.97;61.48
8501;BME280;4288;48.484;10.024;2023-04-28T20:35:53;95371.00;;;18.95;61.99
8501;BME280;4288;48.484;10.024;2023-04-28T20:38:21;95371.00;;;18.95;60.32
8501;BME280;4288;48.484;10.024;2023-04-28T20:40:49;95369.81;;;18.96;59.93
8501;BME280;4288;48.484;10.024;2023-04-28T20:43:16;95364.38;;;18.96;59.47
8501;BME280;4288;48.484;10.024;2023-04-28T20:45:44;95366.38;;;18.96;59.40
8501;BME280;4288;48.484;10.024;2023-04-28T20:48:11;95365.59;;;18.95;59.51
8501;BME280;4288;48.484;10.024;2023-04-28T20:50:39;95364.06;;;18.94;59.36
8501;BME280;4288;48.484;10.024;2023-04-28T20:53:08;95358.66;;;18.94;59.29
8501;BME280;4288;48.484;10.024;2023-04-28T20:55:37;95364.84;;;18.95;59.52
8501;BME280;4288;48.484;10.024;2023-04-28T20:58:04;95362.56;;;18.93;59.43
8501;BME280;4288;48.484;10.024;2023-04-28T21:00:32;95356.72;;;18.95;59.35
8501;BME280;4288;48.484;10.024;2023-04-28T21:03:03;95357.91;;;18.94;59.23
8501;BME280;4288;48.484;10.024;2023-04-28T21:05:30;95363.34;;;18.94;59.29
8501;BME280;4288;48.484;10.024;2023-04-28T21:07:57;95354.44;;;18.93;59.17
8501;BME280;4288;48.484;10.024;2023-04-28T21:10:25;95354.44;;;18.93;59.36
8501;BME280;4288;48.484;10.024;2023-04-28T21:12:54;95361.81;;;18.93;59.28
8501;BME280;4288;48.484;10.024;2023-04-28T21:15:21;95358.31;;;18.92;59.21
8501;BME280;4288;48.484;10.024;2023-04-28T21:17:49;95350.97;;;18.93;59.28
8501;BME280;4288;48.484;10.024;2023-04-28T21:20:16;95358.31;;;18.92;59.00
8501;BME280;4288;48.484;10.024;2023-04-28T21:22:44;95363.00;;;18.92;59.28
8501;BME280;4288;48.484;10.024;2023-04-28T21:25:11;95362.25;;;18.91;59.41
8501;BME280;4288;48.484;10.024;2023-04-28T21:27:39;95364.94;;;18.91;59.34
8501;BME280;4288;48.484;10.024;2023-04-28T21:30:08;95364.94;;;18.91;59.16
8501;BME280;4288;48.484;10.024;2023-04-28T21:32:38;95380.44;;;18.91;59.16
8501;BME280;4288;48.484;10.024;2023-04-28T21:35:06;95375.03;;;18.91;58.98
8501;BME280;4288;48.484;10.024;2023-04-28T21:37:33;95374.25;;;18.90;58.99
8501;BME280;4288;48.484;10.024;2023-04-28T21:40:01;95370.06;;;18.89;59.18
8501;BME280;4288;48.484;10.024;2023-04-28T21:42:28;95371.56;;;18.90;59.24
8501;BME280;4288;48.484;10.024;2023-04-28T21:44:57;95363.88;;;18.89;59.11
8501;BME280;4288;48.484;10.024;2023-04-28T21:47:25;95363.09;;;18.88;59.02
8501;BME280;4288;48.484;10.024;2023-04-28T21:49:53;95362.38;;;18.88;58.98
8501;BME280;4288;48.484;10.024;2023-04-28T21:52:20;95363.88;;;18.89;59.09
8501;BME280;4288;48.484;10.024;2023-04-28T21:54:48;95364.31;;;18.87;58.86
8501;BME280;4288;48.484;10.024;2023-04-28T21:57:15;95361.59;;;18.87;59.21
8501;BME280;4288;48.484;10.024;2023-04-28T21:59:43;95360.84;;;18.87;58.94
8501;BME280;4288;48.484;10.024;2023-04-28T22:02:11;95361.59;;;18.87;58.91
8501;BME280;4288;48.484;10.024;2023-04-28T22:04:40;95355.41;;;18.87;58.83
8501;BME280;4288;48.484;10.024;2023-04-28T22:07:08;95354.66;;;18.86;59.01
8501;BME280;4288;48.484;10.024;2023-04-28T22:09:36;95357.81;;;18.85;58.65
8501;BME280;4288;48.484;10.024;2023-04-28T22:12:03;95358.56;;;18.85;58.80
8501;BME280;4288;48.484;10.024;2023-04-28T22:14:31;95353.16;;;18.85;59.16
8501;BME280;4288;48.484;10.024;2023-04-28T22:16:58;95355.09;;;18.85;59.02
8501;BME280;4288;48.484;10.024;2023-04-28T22:19:25;95354.34;;;18.84;58.99
8501;BME280;4288;48.484;10.024;2023-04-28T22:21:54;95348.91;;;18.84;58.89
8501;BME280;4288;48.484;10.024;2023-04-28T22:24:21;95352.84;;;18.83;59.03
8501;BME280;4288;48.484;10.024;2023-04-28T22:26:49;95357.50;;;18.83;59.11
8501;BME280;4288;48.484;10.024;2023-04-28T22:29:16;95353.28;;;18.82;58.98
8501;BME280;4288;48.484;10.024;2023-04-28T22:31:45;95343.22;;;18.82;59.08
8501;BME280;4288;48.484;10.024;2023-04-28T22:34:12;95347.09;;;18.81;59.15
8501;BME280;4288;48.484;10.024;2023-04-28T22:36:40;95349.81;;;18.81;59.15
8501;BME280;4288;48.484;10.024;2023-04-28T22:39:09;95345.59;;;18.80;59.17
8501;BME280;4288;48.484;10.024;2023-04-28T22:41:37;95342.88;;;18.80;58.98
8501;BME280;4288;48.484;10.024;2023-04-28T22:44:04;95342.13;;;18.80;59.18
8501;BME280;4288;48.484;10.024;2023-04-28T22:46:31;95338.66;;;18.79;59.07
8501;BME280;4288;48.484;10.024;2023-04-28T22:48:59;95344.06;;;18.79;58.99
8501;BME280;4288;48.484;10.024;2023-04-28T22:51:27;95333.25;;;18.79;59.31
8501;BME280;4288;48.484;10.024;2023-04-28T22:53:54;95336.72;;;18.80;59.01
8501;BME280;4288;48.484;10.024;2023-04-28T22:56:23;95335.19;;;18.79;59.12
8501;BME280;4288;48.484;10.024;2023-04-28T22:58:50;95337.16;;;18.78;59.14
8501;BME280;4288;48.484;10.024;2023-04-28T23:01:17;95328.25;;;18.78;59.14
8501;BME280;4288;48.484;10.024;2023-04-28T23:03:45;95341.81;;;18.78;59.36
8501;BME280;4288;48.484;10.024;2023-04-28T23:06:15;95330.22;;;18.77;59.07
8501;BME280;4288;48.484;10.024;2023-04-28T23:08:43;95333.69;;;18.78;58.94
8501;BME280;4288;48.484;10.024;2023-04-28T23:11:10;95332.16;;;18.77;58.93
8501;BME280;4288;48.484;10.024;2023-04-28T23:13:39;95324.03;;;18.77;58.61
8501;BME280;4288;48.484;10.024;2023-04-28T23:16:07;95327.19;;;18.75;59.28
8501;BME280;4288;48.484;10.024;2023-04-28T23:18:34;95319.06;;;18.75;58.62
8501;BME280;4288;48.484;10.024;2023-04-28T23:21:01;95323.72;;;18.75;59.08
8501;BME280;4288;48.484;10.024;2023-04-28T23:23:29;95323.72;;;18.75;59.68
8501;BME280;4288;48.484;10.024;2023-04-28T23:25:57;95320.25;;;18.74;58.84
8501;BME280;4288;48.484;10.024;2023-04-28T23:28:25;95310.63;;;18.73;59.10
8501;BME280;4288;48.484;10.024;2023-04-28T23:30:54;95318.28;;;18.75;59.23
8501;BME280;4288;48.484;10.024;2023-04-28T23:33:21;95316.03;;;18.73;59.51
8501;BME280;4288;48.484;10.024;2023-04-28T23:35:48;95322.97;;;18.74;59.43
8501;BME280;4288;48.484;10.024;2023-04-28T23:38:16;95318.41;;;18.71;59.12
8501;BME280;4288;48.484;10.024;2023-04-28T23:40:43;95316.47;;;18.72;59.23
8501;BME280;4288;48.484;10.024;2023-04-28T23:43:11;95314.94;;;18.71;59.38
8501;BME280;4288;48.484;10.024;2023-04-28T23:45:39;95304.88;;;18.71;59.64
8501;BME280;4288;48.484;10.024;2023-04-28T23:48:08;95310.28;;;18.71;59.78
8501;BME280;4288;48.484;10.024;2023-04-28T23:50:36;95309.97;;;18.69;59.14
8501;BME280;4288;48.484;10.024;2023-04-28T23:53:03;95309.53;;;18.71;59.64
8501;BME280;4288;48.484;10.024;2023-04-28T23:55:30;95299.13;;;18.69;59.12
8501;BME280;4288;48.484;10.024;2023-04-28T23:57:58;95299.13;;;18.69;59.01
